Time;durP1;ratioP1;P1;durP2;ratioP2;P2;SDS_P1;SDS_P2;PMS_P1;PMS_P2;Temp;Humidity;BMP_temperature;BMP_pressure;BME280_temperature;BME280_humidity;BME280_pressure;Samples;Min_cycle;Max_cycle;Signal;HPM_P1;HPM_P2
2023/06/22 00:01:54;;;;;;;3.92;2.10;;;;;;;24.23;100.00;100058.78;6179277;23;20019;-92
2023/06/22 00:04:20;;;;;;;1.80;1.52;;;;;;;24.09;100.00;100048.63;6129633;23;20048;-93
2023/06/22 00:06:46;;;;;;;4.18;2.83;;;;;;;23.97;100.00;100042.31;6153919;23;20013;-94
2023/06/22 00:09:11;;;;;;;2.45;2.13;;;;;;;23.88;100.00;100027.69;6155723;23;20020;-94
2023/06/22 00:11:37;;;;;;;2.08;1.40;;;;;;;23.89;100.00;100043.41;6179046;23;20021;-92
2023/06/22 00:14:03;;;;;;;3.35;2.55;;;;;;;23.79;100.00;100034.47;6156043;23;20021;-93
2023/06/22 00:16:29;;;;;;;2.63;2.10;;;;;;;23.69;100.00;100033.28;6129949;23;20438;-94
2023/06/22 00:18:54;;;;;;;3.60;1.92;;;;;;;23.84;100.00;100059.16;6180034;23;20015;-92
2023/06/22 00:21:20;;;;;;;4.68;3.13;;;;;;;23.73;100.00;100045.09;6179108;23;20024;-93
2023/06/22 00:23:47;;;;;;;1.35;1.25;;;;;;;23.83;100.00;100054.00;6179704;23;20009;-93
2023/06/22 00:26:13;;;;;;;3.33;2.92;;;;;;;23.61;100.00;100054.97;6155385;23;20017;-92
2023/06/22 00:28:38;;;;;;;1.92;1.33;;;;;;;23.62;100.00;100056.50;6180387;23;20005;-92
2023/06/22 00:31:04;;;;;;;3.35;2.72;;;;;;;23.59;100.00;100060.38;6154372;23;20459;-95
2023/06/22 00:33:31;;;;;;;1.80;1.70;;;;;;;23.59;100.00;100052.66;6179779;23;20016;-92
2023/06/22 00:35:57;;;;;;;1.27;1.17;;;;;;;23.56;100.00;100059.38;6154255;23;20013;-92
2023/06/22 00:38:22;;;;;;;2.53;1.48;;;;;;;23.49;100.00;100047.88;6131598;23;20056;-93
2023/06/22 00:40:48;;;;;;;1.05;1.00;;;;;;;23.47;100.00;100044.78;6155799;23;20325;-93
2023/06/22 00:43:14;;;;;;;1.48;1.02;;;;;;;23.67;100.00;100075.50;6155740;23;20340;-92
2023/06/22 00:45:39;;;;;;;2.58;1.67;;;;;;;23.61;100.00;100086.91;6155176;23;20083;-92
2023/06/22 00:48:05;;;;;;;2.10;1.95;;;;;;;23.49;100.00;100076.19;6130514;23;20017;-93
2023/06/22 00:50:35;;;;;;;3.63;2.30;;;;;;;23.45;100.00;100073.63;6180490;23;20525;-92
2023/06/22 00:53:07;;;;;;;1.25;1.15;;;;;;;23.48;100.00;100080.28;6156174;23;20024;-93
2023/06/22 00:55:39;;;;;;;1.58;1.48;;;;;;;23.48;100.00;100074.63;6131595;23;20013;-92
2023/06/22 00:58:09;;;;;;;3.33;1.73;;;;;;;23.51;100.00;100084.91;6131097;23;20036;-93
2023/06/22 01:00:36;;;;;;;2.17;1.80;;;;;;;23.49;100.00;100081.84;6153354;23;20024;-92
2023/06/22 01:06:02;;;;;;;3.45;3.15;;;;;;;23.23;100.00;100053.94;6127307;23;20033;-91
2023/06/22 01:08:43;;;;;;;1.58;1.13;;;;;;;23.14;100.00;100057.84;6069610;23;20447;-92
2023/06/22 01:11:20;;;;;;;2.50;2.30;;;;;;;22.97;100.00;100054.31;6096787;23;20013;-93
2023/06/22 01:13:52;;;;;;;3.05;1.88;;;;;;;22.87;100.00;100058.75;6120098;23;20029;-92
2023/06/22 01:16:21;;;;;;;2.27;1.67;;;;;;;23.00;100.00;100081.59;6119991;23;20439;-92
2023/06/22 01:18:47;;;;;;;2.22;1.63;;;;;;;23.00;100.00;100063.84;6119632;23;20028;-95
2023/06/22 01:21:17;;;;;;;3.47;1.83;;;;;;;22.97;100.00;100071.28;6072491;23;20041;-95
2023/06/22 01:23:58;;;;;;;1.40;0.82;;;;;;;22.92;100.00;100060.81;6096581;23;19998;-94
2023/06/22 01:26:38;;;;;;;6.90;2.47;;;;;;;22.83;100.00;100052.59;6097224;23;20198;-95
2023/06/22 01:29:07;;;;;;;1.48;1.38;;;;;;;22.65;100.00;100058.81;6121327;23;20022;-96
2023/06/22 01:31:34;;;;;;;1.33;1.23;;;;;;;22.77;100.00;100068.81;6096862;23;20079;-95
2023/06/22 01:34:03;;;;;;;2.80;1.55;;;;;;;22.73;100.00;100073.97;6120612;23;20028;-94
2023/06/22 01:36:29;;;;;;;1.17;1.10;;;;;;;22.59;100.00;100060.91;6072822;23;20269;-91
2023/06/22 01:38:56;;;;;;;7.07;3.22;;;;;;;22.56;100.00;100053.47;6119339;23;20097;-92
2023/06/22 01:41:24;;;;;;;3.40;1.95;;;;;;;22.66;100.00;100080.91;6094752;23;20006;-92
2023/06/22 01:43:49;;;;;;;2.17;1.92;;;;;;;22.57;100.00;100069.13;6119848;23;20014;-93
2023/06/22 01:46:15;;;;;;;1.45;1.35;;;;;;;22.60;100.00;100070.94;6095663;23;20016;-92
2023/06/22 01:48:41;;;;;;;2.13;1.95;;;;;;;22.64;100.00;100085.56;6096068;23;20042;-95
2023/06/22 01:51:06;;;;;;;1.48;1.38;;;;;;;22.52;100.00;100093.31;6120785;23;20090;-95
2023/06/22 01:53:32;;;;;;;1.33;1.02;;;;;;;22.44;100.00;100081.00;6096066;23;20010;-95
2023/06/22 01:55:58;;;;;;;1.45;1.35;;;;;;;22.39;100.00;100089.50;6073190;23;20064;-94
2023/06/22 01:58:27;;;;;;;3.78;2.95;;;;;;;22.35;100.00;100106.72;6096344;23;20385;-95
2023/06/22 02:00:58;;;;;;;0.75;0.75;;;;;;;22.13;100.00;100104.69;6097271;23;20014;-95
2023/06/22 02:03:30;;;;;;;2.45;2.25;;;;;;;21.90;100.00;100100.31;6095508;23;20045;-95
2023/06/22 02:06:03;;;;;;;4.03;1.38;;;;;;;21.86;100.00;100096.97;6100985;23;20014;-91
2023/06/22 02:08:29;;;;;;;;;;;;;;;22.01;100.00;100120.09;6099842;23;20025;-93
2023/06/22 02:10:59;;;;;;;1.38;1.15;;;;;;;21.87;100.00;100090.03;6125681;23;20211;-93
2023/06/22 02:13:25;;;;;;;1.90;1.45;;;;;;;21.86;100.00;100088.50;6123769;23;20348;-92
2023/06/22 02:15:51;;;;;;;1.30;1.20;;;;;;;21.66;100.00;100085.94;6101259;23;20072;-92
2023/06/22 02:18:17;;;;;;;0.75;0.73;;;;;;;21.71;100.00;100104.94;6123808;23;20009;-93
2023/06/22 02:20:42;;;;;;;1.13;0.95;;;;;;;21.56;100.00;100078.97;6151381;23;20029;-93
2023/06/22 02:23:08;;;;;;;0.52;0.28;;;;;;;21.56;100.00;100093.88;6123014;23;20022;-92
2023/06/22 02:25:35;;;;;;;0.47;0.47;;;;;;;21.49;100.00;100093.59;6149616;23;20048;-92
2023/06/22 02:28:01;;;;;;;1.80;1.30;;;;;;;21.39;100.00;100074.09;6150032;23;20089;-93
2023/06/22 02:30:26;;;;;;;1.10;0.85;;;;;;;21.41;100.00;100076.41;6150921;23;20017;-92
2023/06/22 02:32:58;;;;;;;2.08;1.45;;;;;;;21.40;100.00;100058.69;6150265;23;20389;-92
2023/06/22 02:35:31;;;;;;;1.13;0.98;;;;;;;21.40;100.00;100072.81;6077269;23;20021;-92
2023/06/22 02:38:01;;;;;;;1.52;1.42;;;;;;;21.32;100.00;100068.94;6100219;23;20005;-93
2023/06/22 02:40:29;;;;;;;2.15;1.58;;;;;;;21.42;100.00;100089.25;6124706;23;20014;-92
2023/06/22 02:42:58;;;;;;;0.95;0.95;;;;;;;21.34;100.00;100086.16;6124724;23;20079;-92
2023/06/22 02:45:23;;;;;;;0.63;0.63;;;;;;;21.42;100.00;100096.94;6150605;23;20044;-92
2023/06/22 02:47:50;;;;;;;1.95;1.45;;;;;;;21.20;100.00;100058.94;6124414;23;20021;-93
2023/06/22 02:50:16;;;;;;;0.77;0.70;;;;;;;21.27;100.00;100083.81;6100619;23;20005;-92
2023/06/22 02:52:42;;;;;;;16.27;1.98;;;;;;;21.13;100.00;100084.81;6123204;23;20017;-92
2023/06/22 02:55:08;;;;;;;0.38;0.30;;;;;;;21.19;100.00;100088.41;6151066;23;20346;-91
2023/06/22 02:57:34;;;;;;;2.65;1.58;;;;;;;21.15;100.00;100087.13;6100088;23;20300;-91
2023/06/22 03:00:00;;;;;;;2.42;1.83;;;;;;;21.18;100.00;100091.75;6150561;23;20023;-91
2023/06/22 03:02:26;;;;;;;1.70;0.98;;;;;;;21.12;100.00;100083.28;6076006;23;20037;-94
2023/06/22 03:04:53;;;;;;;6.88;2.45;;;;;;;20.86;100.00;100079.84;6077498;23;20010;-94
2023/06/22 03:07:20;;;;;;;0.65;0.63;;;;;;;20.94;100.00;100103.44;6076839;23;20469;-93
2023/06/22 03:09:46;;;;;;;0.73;0.73;;;;;;;20.72;100.00;100083.59;6101951;23;20013;-94
2023/06/22 03:12:12;;;;;;;4.78;1.35;;;;;;;20.73;100.00;100100.03;6100657;23;20013;-95
2023/06/22 03:14:51;;;;;;;1.63;1.42;;;;;;;20.81;100.00;100108.78;6104079;23;20014;-94
2023/06/22 03:17:17;;;;;;;0.65;0.65;;;;;;;20.83;100.00;100104.16;6101025;23;20013;-94
2023/06/22 03:19:43;;;;;;;1.15;1.05;;;;;;;20.72;100.00;100084.38;6101114;23;20014;-94
2023/06/22 03:22:09;;;;;;;2.70;1.00;;;;;;;20.74;100.00;100081.84;6124346;23;20032;-94
2023/06/22 03:24:34;;;;;;;1.05;0.95;;;;;;;20.77;100.00;100091.31;6101302;23;20040;-95
2023/06/22 03:27:01;;;;;;;9.05;1.27;;;;;;;20.90;100.00;100103.69;6101310;23;20355;-95
2023/06/22 03:29:29;;;;;;;0.65;0.65;;;;;;;20.87;100.00;100103.91;6101780;23;20080;-94
2023/06/22 03:31:55;;;;;;;0.85;0.85;;;;;;;20.90;100.00;100100.88;6100633;23;20022;-94
2023/06/22 03:34:21;;;;;;;1.85;1.08;;;;;;;20.85;100.00;100083.94;6100418;23;20024;-95
2023/06/22 03:36:51;;;;;;;0.75;0.75;;;;;;;20.85;100.00;100092.38;6101057;23;20453;-95
2023/06/22 03:39:16;;;;;;;1.10;1.10;;;;;;;20.79;100.00;100085.94;6100196;23;20050;-94
2023/06/22 03:41:42;;;;;;;1.08;1.00;;;;;;;20.94;100.00;100111.91;6076574;23;20017;-92
2023/06/22 03:44:12;;;;;;;5.03;1.33;;;;;;;20.82;100.00;100091.34;6098815;23;20024;-90
2023/06/22 03:46:37;;;;;;;1.17;0.68;;;;;;;20.78;100.00;100095.69;6121701;23;20125;-91
2023/06/22 03:49:03;;;;;;;1.48;1.23;;;;;;;20.86;100.00;100105.22;6123540;23;20088;-91
2023/06/22 03:51:29;;;;;;;0.98;0.47;;;;;;;20.92;100.00;100101.13;6123201;23;20028;-91
2023/06/22 03:53:55;;;;;;;1.25;1.15;;;;;;;20.97;100.00;100105.25;6148325;23;20009;-91
2023/06/22 03:56:20;;;;;;;1.45;0.80;;;;;;;20.98;100.00;100106.78;6120623;23;20392;-90
2023/06/22 03:58:46;;;;;;;0.43;0.43;;;;;;;20.94;100.00;100103.44;6099846;23;20021;-95
2023/06/22 04:01:11;;;;;;;1.10;0.82;;;;;;;21.10;100.00;100125.31;6100950;23;20023;-96
2023/06/22 04:03:38;;;;;;;1.33;1.23;;;;;;;21.11;100.00;100100.69;6100963;23;20009;-95
2023/06/22 04:06:03;;;;;;;0.82;0.75;;;;;;;21.24;100.00;100107.41;6096565;23;20014;-95
2023/06/22 04:08:29;;;;;;;0.52;0.52;;;;;;;21.26;100.00;100116.16;6072917;23;20052;-94
2023/06/22 04:10:55;;;;;;;1.40;0.70;;;;;;;21.33;100.00;100126.94;6072668;23;20340;-96
2023/06/22 04:13:21;;;;;;;1.60;0.80;;;;;;;21.16;100.00;100100.72;6073309;23;20487;-96
2023/06/22 04:15:47;;;;;;;1.17;1.08;;;;;;;21.35;100.00;100115.88;6047598;23;20014;-95
2023/06/22 04:18:13;;;;;;;1.80;1.70;;;;;;;21.31;100.00;100112.53;6073273;23;20022;-96
2023/06/22 04:20:39;;;;;;;0.85;0.80;;;;;;;21.45;100.00;100115.66;6072790;23;20033;-94
2023/06/22 04:23:04;;;;;;;0.15;0.15;;;;;;;21.37;100.00;100098.47;6075058;23;20029;-95
2023/06/22 04:25:30;;;;;;;0.40;0.40;;;;;;;21.55;100.00;100119.78;6076129;23;20109;-95
2023/06/22 04:27:56;;;;;;;1.55;1.27;;;;;;;21.65;100.00;100121.06;6076597;23;20014;-95
2023/06/22 04:30:22;;;;;;;0.70;0.50;;;;;;;21.80;100.00;100130.06;6076199;23;20021;-95
2023/06/22 04:33:05;;;;;;;0.73;0.40;;;;;;;21.85;100.00;100126.47;6076619;23;20011;-95
2023/06/22 04:35:31;;;;;;;0.38;0.38;;;;;;;21.97;100.00;100133.72;6075585;23;20013;-95
2023/06/22 04:37:58;;;;;;;1.10;1.02;;;;;;;22.10;100.00;100131.13;6073832;23;20065;-96
2023/06/22 04:40:23;;;;;;;0.50;0.50;;;;;;;22.04;100.00;100127.53;6051993;23;20006;-95
2023/06/22 04:42:52;;;;;;;0.55;0.55;;;;;;;22.03;100.00;100114.72;6075805;23;20077;-95
2023/06/22 04:45:19;;;;;;;0.63;0.63;;;;;;;22.16;100.00;100134.72;6073489;23;20010;-94
2023/06/22 04:47:45;;;;;;;1.38;1.27;;;;;;;22.03;100.00;100114.72;6072573;23;20049;-96
2023/06/22 04:50:14;;;;;;;6.60;1.85;;;;;;;21.96;100.00;100103.91;6073369;23;20046;-95
2023/06/22 04:52:40;;;;;;;0.70;0.70;;;;;;;21.92;100.00;100103.41;6071066;23;20443;-95
2023/06/22 04:55:06;;;;;;;7.22;1.17;;;;;;;22.12;100.00;100128.56;6072857;23;20059;-94
2023/06/22 04:57:34;;;;;;;1.83;1.02;;;;;;;22.04;100.00;100110.59;6073022;23;20108;-95
2023/06/22 05:00:11;;;;;;;1.60;1.23;;;;;;;22.15;100.00;100110.59;6073513;23;20017;-96
2023/06/22 05:02:40;;;;;;;3.08;1.52;;;;;;;22.24;100.00;100113.13;6072492;23;20395;-95
2023/06/22 05:05:07;;;;;;;1.00;0.70;;;;;;;22.35;100.00;100122.91;6096214;23;20013;-92
2023/06/22 05:07:33;;;;;;;1.17;1.10;;;;;;;22.51;100.00;100139.81;6094346;23;20017;-93
2023/06/22 05:10:00;;;;;;;1.23;0.95;;;;;;;22.51;100.00;100128.53;6094756;23;20020;-92
2023/06/22 05:12:28;;;;;;;0.57;0.55;;;;;;;22.63;100.00;100134.91;6119029;23;20018;-92
2023/06/22 05:14:53;;;;;;;1.45;1.08;;;;;;;22.69;100.00;100118.72;6119251;23;20049;-93
2023/06/22 05:17:19;;;;;;;0.85;0.85;;;;;;;22.71;100.00;100116.16;6092823;23;20017;-92
2023/06/22 05:19:48;;;;;;;1.25;1.05;;;;;;;22.88;100.00;100125.34;6118382;23;20021;-90
2023/06/22 05:22:14;;;;;;;0.85;0.85;;;;;;;23.06;100.00;100135.28;6119049;23;20029;-90
2023/06/22 05:24:40;;;;;;;0.35;0.30;;;;;;;23.22;100.00;100149.38;6113943;23;20072;-92
2023/06/22 05:27:06;;;;;;;1.50;1.17;;;;;;;23.27;100.00;100135.72;6093307;23;20033;-91
2023/06/22 05:29:31;;;;;;;2.58;2.13;;;;;;;23.38;100.00;100127.94;6092645;23;20440;-92
2023/06/22 05:31:57;;;;;;;0.65;0.65;;;;;;;23.58;100.00;100140.94;6116416;23;20032;-92
2023/06/22 05:34:22;;;;;;;0.82;0.82;;;;;;;23.77;100.00;100141.88;6113958;23;20014;-92
2023/06/22 05:36:48;;;;;;;1.98;1.35;;;;;;;23.92;100.00;100136.59;6092511;23;20036;-92
2023/06/22 05:39:14;;;;;;;1.52;1.02;;;;;;;24.02;100.00;100134.97;6091641;23;20065;-92
2023/06/22 05:41:40;;;;;;;1.23;1.13;;;;;;;24.24;100.00;100133.25;6092379;23;20411;-90
2023/06/22 05:44:06;;;;;;;1.70;1.48;;;;;;;24.36;100.00;100126.19;6067650;23;20517;-91
2023/06/22 05:46:32;;;;;;;1.55;1.23;;;;;;;24.43;100.00;100123.53;6117331;23;20037;-90
2023/06/22 05:48:57;;;;;;;0.95;0.93;;;;;;;24.46;100.00;100113.97;6068812;23;20019;-90
2023/06/22 05:51:23;;;;;;;1.25;1.15;;;;;;;24.71;100.00;100131.00;6115875;23;20010;-92
2023/06/22 05:53:49;;;;;;;1.50;1.33;;;;;;;24.84;100.00;100120.50;6067861;23;20032;-93
2023/06/22 05:56:15;;;;;;;0.82;0.77;;;;;;;25.14;100.00;100123.25;6116270;23;20002;-92
2023/06/22 05:58:41;;;;;;;1.60;1.50;;;;;;;25.32;100.00;100116.81;6069242;23;20293;-92
2023/06/22 06:01:06;;;;;;;2.05;1.90;;;;;;;25.52;100.00;100118.31;6119190;23;20017;-92
2023/06/22 06:03:32;;;;;;;1.67;1.02;;;;;;;25.78;100.00;100120.53;6119018;23;20021;-93
2023/06/22 06:05:58;;;;;;;1.55;0.70;;;;;;;25.96;100.00;100122.59;6094550;23;20013;-93
2023/06/22 06:08:23;;;;;;;2.22;1.75;;;;;;;26.20;100.00;100127.38;6118430;23;20018;-92
2023/06/22 06:10:49;;;;;;;1.50;1.25;;;;;;;26.31;100.00;100115.78;6120124;23;20239;-92
2023/06/22 06:13:15;;;;;;;1.58;1.42;;;;;;;26.46;100.00;100118.88;6094509;23;20483;-93
2023/06/22 06:15:40;;;;;;;2.42;1.13;;;;;;;26.64;100.00;100117.25;6119365;23;20765;-92
2023/06/22 06:18:06;;;;;;;1.42;1.33;;;;;;;26.74;100.00;100116.25;6119559;23;20022;-92
2023/06/22 06:20:32;;;;;;;1.20;1.10;;;;;;;27.00;100.00;100126.13;6098125;23;20018;-94
2023/06/22 06:22:58;;;;;;;1.05;1.05;;;;;;;27.06;100.00;100121.84;6078773;23;20018;-93
2023/06/22 06:25:23;;;;;;;1.77;1.63;;;;;;;27.30;100.00;100120.78;6123524;23;20013;-91
2023/06/22 06:27:50;;;;;;;1.83;1.17;;;;;;;27.54;100.00;100129.06;6119405;23;19998;-94
2023/06/22 06:30:17;;;;;;;3.47;1.55;;;;;;;27.54;100.00;100128.34;6119653;23;20018;-92
2023/06/22 06:32:45;;;;;;;0.47;0.47;;;;;;;27.66;100.00;100136.03;6094111;23;20392;-92
2023/06/22 06:35:12;;;;;;;2.22;1.85;;;;;;;27.77;100.00;100130.09;6119074;23;20014;-92
2023/06/22 06:37:39;;;;;;;1.83;1.73;;;;;;;27.78;100.00;100143.00;6118904;23;20021;-90
2023/06/22 06:40:10;;;;;;;1.63;0.85;;;;;;;28.05;100.00;100131.50;6070552;23;20026;-91
2023/06/22 06:42:45;;;;;;;1.38;1.08;;;;;;;28.38;99.96;100132.75;6094578;23;20088;-88
2023/06/22 06:45:23;;;;;;;1.80;1.23;;;;;;;28.34;97.72;100135.19;6070390;23;20179;-90
2023/06/22 06:47:51;;;;;;;5.70;2.22;;;;;;;28.56;97.02;100129.66;6119501;23;20026;-90
2023/06/22 06:50:17;;;;;;;5.38;1.65;;;;;;;28.77;95.96;100131.72;6119211;23;20016;-91
2023/06/22 06:52:43;;;;;;;1.52;1.42;;;;;;;28.85;95.30;100132.50;6094308;23;20034;-90
2023/06/22 06:55:11;;;;;;;2.33;1.88;;;;;;;28.80;94.43;100137.06;6119080;23;20029;-91
2023/06/22 06:57:41;;;;;;;2.83;1.98;;;;;;;28.70;96.98;100133.97;6119481;23;20022;-89
2023/06/22 07:00:13;;;;;;;1.83;1.67;;;;;;;28.83;95.54;100135.19;6070296;23;20037;-90
2023/06/22 07:02:47;;;;;;;1.42;0.93;;;;;;;29.08;94.82;100134.16;6094496;23;20021;-90
2023/06/22 07:05:13;;;;;;;1.65;1.50;;;;;;;29.25;94.03;100139.38;6118706;23;20014;-90
2023/06/22 07:07:38;;;;;;;1.33;1.23;;;;;;;29.52;93.04;100126.34;6119265;23;20010;-93
2023/06/22 07:10:06;;;;;;;1.30;1.02;;;;;;;29.44;87.13;100125.56;6118658;23;20076;-93
2023/06/22 07:12:31;;;;;;;2.72;2.10;;;;;;;29.39;88.25;100120.81;6070885;23;20021;-94
2023/06/22 07:15:11;;;;;;;3.28;1.33;;;;;;;29.68;88.03;100126.41;6119288;23;20013;-92
2023/06/22 07:17:37;;;;;;;1.25;1.10;;;;;;;29.74;87.52;100129.84;6094103;23;20025;-91
2023/06/22 07:20:08;;;;;;;2.13;1.65;;;;;;;29.77;86.52;100128.69;6094696;23;20014;-90
2023/06/22 07:22:33;;;;;;;3.38;2.28;;;;;;;29.98;86.88;100127.22;6070981;23;20436;-90
2023/06/22 07:24:59;;;;;;;2.00;1.75;;;;;;;30.20;83.87;100124.97;6093836;23;20020;-89
2023/06/22 07:27:25;;;;;;;1.65;1.27;;;;;;;30.32;84.83;100118.28;6117901;23;20025;-89
2023/06/22 07:29:51;;;;;;;1.30;1.20;;;;;;;30.36;83.21;100115.81;6090749;23;20064;-89
2023/06/22 07:32:16;;;;;;;1.95;1.73;;;;;;;30.21;84.32;100107.22;6114701;23;20014;-90
2023/06/22 07:34:43;;;;;;;1.45;1.35;;;;;;;30.29;83.14;100119.41;6117314;23;20014;-89
2023/06/22 07:37:08;;;;;;;1.55;1.25;;;;;;;30.59;81.79;100109.31;6115039;23;21329;-89
2023/06/22 07:39:34;;;;;;;4.53;1.58;;;;;;;30.89;80.99;100109.25;6091442;23;20037;-89
2023/06/22 07:42:00;;;;;;;2.40;1.65;;;;;;;31.16;80.40;100109.53;6092411;23;20021;-89
2023/06/22 07:44:25;;;;;;;2.03;1.83;;;;;;;30.98;80.26;100114.34;6067488;23;20348;-90
2023/06/22 07:46:51;;;;;;;2.22;1.63;;;;;;;30.93;81.51;100103.88;6092212;23;20018;-89
2023/06/22 07:49:17;;;;;;;1.30;1.20;;;;;;;31.19;80.81;100097.69;6091378;23;20029;-88
2023/06/22 07:51:42;;;;;;;1.23;1.13;;;;;;;31.34;80.16;100108.31;6068023;23;20866;-88
2023/06/22 07:54:09;;;;;;;1.60;1.00;;;;;;;31.29;78.51;100095.72;6090933;23;20358;-91
2023/06/22 07:56:36;;;;;;;0.95;0.80;;;;;;;31.56;78.92;100110.31;6092756;23;20180;-92
2023/06/22 07:59:03;;;;;;;3.88;1.75;;;;;;;31.66;77.60;100105.50;6093815;23;20020;-92
2023/06/22 08:01:29;;;;;;;1.33;1.17;;;;;;;31.71;76.72;100095.88;6093269;23;20534;-92
2023/06/22 08:03:55;;;;;;;1.88;1.52;;;;;;;31.66;75.18;100091.16;6117941;23;20018;-89
2023/06/22 08:06:21;;;;;;;4.10;1.65;;;;;;;31.40;77.46;100094.50;6093626;23;20017;-90
2023/06/22 08:08:48;;;;;;;1.65;1.55;;;;;;;31.35;79.20;100090.53;6119483;23;20483;-90
2023/06/22 08:11:13;;;;;;;2.15;1.75;;;;;;;31.56;76.61;100080.88;6096121;23;20009;-90
2023/06/22 08:13:39;;;;;;;1.95;1.83;;;;;;;31.45;75.22;100085.72;6096343;23;20006;-90
2023/06/22 08:16:05;;;;;;;1.73;1.55;;;;;;;31.60;76.33;100084.09;6095242;23;20512;-91
2023/06/22 08:18:30;;;;;;;1.75;1.48;;;;;;;31.79;74.35;100084.34;6119890;23;20002;-90
2023/06/22 08:20:56;;;;;;;1.80;1.08;;;;;;;31.49;76.66;100079.56;6095703;23;20088;-90
2023/06/22 08:23:21;;;;;;;1.45;1.35;;;;;;;31.33;77.69;100078.91;6095131;23;20013;-88
2023/06/22 08:25:48;;;;;;;2.58;2.35;;;;;;;31.51;78.48;100084.69;6071830;23;20033;-88
2023/06/22 08:28:13;;;;;;;1.20;1.10;;;;;;;31.60;79.76;100107.03;6095352;23;20009;-88
2023/06/22 08:30:39;;;;;;;2.80;1.48;;;;;;;31.73;76.79;100092.44;6095266;23;20025;-88
2023/06/22 08:33:04;;;;;;;2.78;1.75;;;;;;;31.97;78.98;100091.69;6071295;23;20018;-88
2023/06/22 08:35:30;;;;;;;1.35;1.25;;;;;;;32.05;75.41;100080.13;6095534;23;20101;-88
2023/06/22 08:37:56;;;;;;;1.75;1.48;;;;;;;32.14;76.35;100080.28;6095276;23;20041;-88
2023/06/22 08:40:22;;;;;;;1.73;1.63;;;;;;;32.06;74.92;100090.28;6120516;23;20049;-88
2023/06/22 08:42:49;;;;;;;1.80;1.50;;;;;;;32.33;75.60;100086.22;6118850;23;20021;-88
2023/06/22 08:45:14;;;;;;;1.52;1.13;;;;;;;32.54;74.08;100082.97;6095030;23;20105;-87
2023/06/22 08:47:43;;;;;;;1.98;1.80;;;;;;;32.66;71.77;100088.97;6119576;23;20051;-87
2023/06/22 08:50:12;;;;;;;3.47;2.65;;;;;;;32.60;71.94;100085.56;6071430;23;20014;-88
2023/06/22 08:52:41;;;;;;;1.25;1.15;;;;;;;32.33;75.57;100083.34;6093813;23;20383;-92
2023/06/22 08:55:07;;;;;;;1.88;1.52;;;;;;;32.61;72.87;100084.25;6118810;23;20130;-92
2023/06/22 08:57:33;;;;;;;3.00;2.00;;;;;;;32.61;71.47;100075.63;6119696;23;20014;-92
2023/06/22 08:59:59;;;;;;;6.65;2.50;;;;;;;32.78;73.64;100076.41;6096076;23;20097;-91
2023/06/22 09:02:25;;;;;;;1.67;1.58;;;;;;;32.89;71.07;100077.97;6094518;23;20038;-91
2023/06/22 09:04:55;;;;;;;1.77;1.33;;;;;;;33.10;71.79;100068.91;6124418;23;20025;-91
2023/06/22 09:07:23;;;;;;;2.78;2.38;;;;;;;33.46;69.99;100060.38;6125688;23;20020;-92
2023/06/22 09:09:49;;;;;;;2.25;1.40;;;;;;;33.36;66.74;100070.34;6124941;23;20016;-91
2023/06/22 09:12:14;;;;;;;7.50;2.30;;;;;;;33.12;66.03;100069.09;6125204;23;20064;-91
2023/06/22 09:14:40;;;;;;;2.15;1.73;;;;;;;32.85;67.78;100077.66;6100998;23;20096;-93
2023/06/22 09:17:05;;;;;;;1.55;1.38;;;;;;;32.71;68.54;100062.13;6124306;23;20009;-92
2023/06/22 09:19:31;;;;;;;2.33;1.70;;;;;;;32.73;68.88;100060.19;6100543;23;20012;-93
2023/06/22 09:21:57;;;;;;;2.83;1.92;;;;;;;32.91;64.34;100063.81;6125126;23;20092;-92
2023/06/22 09:24:22;;;;;;;3.38;1.77;;;;;;;33.23;65.49;100057.09;6100175;23;20028;-92
2023/06/22 09:26:48;;;;;;;1.20;1.10;;;;;;;33.44;65.00;100050.84;6125968;23;20438;-91
2023/06/22 09:29:13;;;;;;;2.63;2.15;;;;;;;33.48;64.56;100068.44;6125221;23;20009;-90
2023/06/22 09:31:39;;;;;;;2.00;1.83;;;;;;;33.51;62.98;100061.47;6099536;23;20018;-90
2023/06/22 09:34:05;;;;;;;2.17;1.98;;;;;;;33.55;63.91;100061.81;6100819;23;20024;-94
2023/06/22 09:36:31;;;;;;;1.73;1.63;;;;;;;33.94;61.17;100057.75;6124952;23;20084;-90
2023/06/22 09:38:58;;;;;;;1.33;1.23;;;;;;;34.03;59.85;100057.03;6100350;23;20460;-90
2023/06/22 09:41:24;;;;;;;2.60;1.98;;;;;;;33.79;60.54;100063.75;6100409;23;20025;-92
2023/06/22 09:43:50;;;;;;;2.05;1.88;;;;;;;34.05;60.61;100065.78;6100445;23;20032;-91
2023/06/22 09:46:16;;;;;;;1.92;1.75;;;;;;;34.29;58.82;100058.34;6124311;23;20029;-90
2023/06/22 09:48:42;;;;;;;2.35;2.15;;;;;;;34.26;57.71;100065.28;6076120;23;20013;-91
2023/06/22 09:51:07;;;;;;;1.60;1.45;;;;;;;34.41;55.96;100079.41;6124937;23;20017;-92
2023/06/22 09:53:34;;;;;;;2.30;2.13;;;;;;;34.37;56.84;100081.22;6124416;23;20459;-91
2023/06/22 09:56:01;;;;;;;3.67;2.53;;;;;;;34.55;54.53;100082.59;6101382;23;20431;-90
2023/06/22 09:58:27;;;;;;;1.95;1.67;;;;;;;34.28;56.54;100064.69;6100394;23;20101;-91
2023/06/22 10:00:54;;;;;;;1.30;1.20;;;;;;;34.60;55.03;100058.50;6124190;23;20057;-91
2023/06/22 10:03:20;;;;;;;1.83;1.67;;;;;;;34.86;55.08;100057.59;6098971;23;20064;-91
2023/06/22 10:05:45;;;;;;;1.65;1.00;;;;;;;34.83;51.45;100072.47;6124101;23;20387;-91
2023/06/22 10:08:11;;;;;;;1.83;1.73;;;;;;;34.15;54.89;100049.34;6099428;23;20049;-88
2023/06/22 10:10:37;;;;;;;2.92;2.10;;;;;;;34.27;56.14;100054.53;6124641;23;20018;-88
2023/06/22 10:13:08;;;;;;;2.25;2.05;;;;;;;34.49;55.85;100059.13;6123527;23;20347;-88
2023/06/22 10:15:34;;;;;;;2.42;2.08;;;;;;;34.72;52.77;100047.16;6124212;23;20009;-88
2023/06/22 10:18:00;;;;;;;2.80;2.03;;;;;;;34.79;52.42;100049.88;6099368;23;20024;-89
2023/06/22 10:20:26;;;;;;;3.00;2.42;;;;;;;34.67;50.39;100039.56;6099106;23;20103;-88
2023/06/22 10:22:51;;;;;;;3.03;2.42;;;;;;;34.59;52.18;100037.59;6099065;23;20021;-88
2023/06/22 10:25:17;;;;;;;2.85;1.85;;;;;;;34.97;51.44;100045.50;6099618;23;20048;-88
2023/06/22 10:27:43;;;;;;;3.22;1.75;;;;;;;35.34;49.00;100043.16;6076249;23;20005;-87
2023/06/22 10:30:10;;;;;;;5.70;1.80;;;;;;;35.66;48.83;100038.22;6098849;23;20466;-88
2023/06/22 10:32:36;;;;;;;2.95;1.45;;;;;;;35.42;51.29;100037.97;6123819;23;20480;-87
2023/06/22 10:35:02;;;;;;;1.70;1.45;;;;;;;35.19;53.69;100031.19;6099536;23;20009;-91
2023/06/22 10:37:28;;;;;;;4.72;2.72;;;;;;;34.73;53.31;100046.56;6099116;23;20099;-91
2023/06/22 10:39:53;;;;;;;7.32;2.38;;;;;;;34.80;54.22;100045.66;6099116;23;20017;-92
2023/06/22 10:42:19;;;;;;;2.05;1.58;;;;;;;34.97;56.09;100045.50;6099205;23;20013;-90
2023/06/22 10:44:44;;;;;;;2.92;2.10;;;;;;;35.34;56.59;100045.28;6123662;23;20012;-92
2023/06/22 10:47:27;;;;;;;2.13;1.95;;;;;;;35.03;54.98;100043.03;6121008;23;20160;-90
2023/06/22 10:49:52;;;;;;;3.40;2.67;;;;;;;34.96;56.28;100052.59;6097637;23;20018;-90
2023/06/22 10:52:18;;;;;;;19.48;2.47;;;;;;;34.87;56.25;100050.50;6122437;23;20428;-91
2023/06/22 10:54:44;;;;;;;1.58;1.48;;;;;;;34.83;56.41;100038.66;6096966;23;20021;-88
2023/06/22 10:57:09;;;;;;;3.38;2.63;;;;;;;34.80;53.65;100039.88;6122683;23;20009;-88
2023/06/22 10:59:35;;;;;;;4.72;2.25;;;;;;;35.13;55.52;100033.63;6122426;23;20013;-88
2023/06/22 11:02:00;;;;;;;0.98;0.98;;;;;;;35.26;51.04;100036.06;6092650;23;20025;-89
2023/06/22 11:04:26;;;;;;;1.65;1.45;;;;;;;35.62;51.19;100027.13;6146351;23;20432;-87
2023/06/22 11:06:52;;;;;;;1.67;1.58;;;;;;;35.62;54.50;100024.25;6120100;23;20017;-89
2023/06/22 11:09:20;;;;;;;1.40;1.30;;;;;;;35.68;53.00;100027.56;6119688;23;20018;-89
2023/06/22 11:11:50;;;;;;;2.78;2.35;;;;;;;35.57;53.60;100013.78;6120127;23;20017;-92
2023/06/22 11:14:15;;;;;;;1.65;1.52;;;;;;;36.01;52.06;100021.94;6118919;23;20072;-93
2023/06/22 11:16:43;;;;;;;1.77;1.67;;;;;;;35.95;48.68;100022.25;6094122;23;20285;-93
2023/06/22 11:19:10;;;;;;;2.85;1.65;;;;;;;36.32;49.78;100016.13;6119676;23;20021;-92
2023/06/22 11:21:35;;;;;;;2.05;1.85;;;;;;;36.36;49.41;100010.59;6096712;23;20072;-90
2023/06/22 11:24:01;;;;;;;2.17;1.98;;;;;;;36.16;48.60;100012.88;6096832;23;20025;-90